createdAt,value
2019-05-01T00:01:59.503Z,269.27
2019-05-01T00:07:07.798Z,292.77
2019-05-01T00:12:13.781Z,500.33
2019-05-01T00:22:27.775Z,293.07
2019-05-01T00:27:33.742Z,296.40
2019-05-01T00:32:39.833Z,301.10
2019-05-01T00:42:51.657Z,299.23
2019-05-01T00:47:57.745Z,302.73
2019-05-01T00:53:03.704Z,316.13
2019-05-01T00:58:09.569Z,313.40
2019-05-01T01:03:15.646Z,311.73
2019-05-01T01:08:21.621Z,319.77
2019-05-01T01:13:27.611Z,325.03
2019-05-01T01:18:33.986Z,323.87
2019-05-01T01:28:45.801Z,324.43
2019-05-01T01:33:51.773Z,316.75
2019-05-01T01:44:08.142Z,319.37
2019-05-01T01:54:20.013Z,324.50
2019-05-01T01:59:26.137Z,329.53
2019-05-01T02:04:39.845Z,326.90
2019-05-01T02:14:51.730Z,311.57
2019-05-01T02:19:57.697Z,309.53
2019-05-01T02:25:04.203Z,329.23
2019-05-01T02:30:11.794Z,326.40
2019-05-01T02:35:17.767Z,324.53
2019-05-01T02:40:23.739Z,316.93
2019-05-01T02:45:29.810Z,318.10
2019-05-01T02:50:35.782Z,317.70
2019-05-01T03:00:49.374Z,307.70
2019-05-01T03:05:55.542Z,310.30
2019-05-01T03:11:01.819Z,308.03
2019-05-01T03:16:07.890Z,315.53
2019-05-01T03:21:16.045Z,311.23
2019-05-01T03:26:22.316Z,384.37
2019-05-01T03:36:51.996Z,376.77
2019-05-01T03:41:58.116Z,351.27
2019-05-01T03:47:04.140Z,329.07
2019-05-01T09:42:03.274Z,250.72
2019-05-01T09:52:18.828Z,159.33
2019-05-01T09:57:24.453Z,126.13
2019-05-01T10:02:30.925Z,134.97
2019-05-01T10:07:36.803Z,122.77
2019-05-01T10:12:47.104Z,115.45
2019-05-01T10:17:50.506Z,113.90
2019-05-01T10:23:01.768Z,110.63
2019-05-01T10:28:17.670Z,107.50
2019-05-01T10:33:28.974Z,107.27
2019-05-01T10:38:34.997Z,109.63
2019-05-01T10:43:40.962Z,101.30
2019-05-01T10:48:47.040Z,98.90
2019-05-01T10:59:03.638Z,331.90
2019-05-01T11:04:10.624Z,516.08
2019-05-01T11:14:22.848Z,569.40
2019-05-01T11:19:29.769Z,612.00
2019-05-01T11:24:38.824Z,586.33
2019-05-01T11:29:46.464Z,701.43
2019-05-01T11:34:57.376Z,867.93
2019-05-01T11:40:10.834Z,700.40
2019-05-01T11:45:16.804Z,639.13
2019-05-01T11:50:22.776Z,492.37
2019-05-01T11:55:28.845Z,367.40
2019-05-01T12:05:40.680Z,211.10
2019-05-01T12:10:46.756Z,168.13
2019-05-01T12:15:54.467Z,141.13
2019-05-01T12:21:02.220Z,119.37
2019-05-01T12:26:08.281Z,97.63
2019-05-01T12:31:14.277Z,89.57
2019-05-01T12:36:20.330Z,83.13
2019-05-01T12:41:27.713Z,82.00
2019-05-01T12:46:54.078Z,79.15
2019-05-01T12:52:10.344Z,79.17
2019-05-01T12:57:09.290Z,84.17
2019-05-01T13:02:15.281Z,78.27
2019-05-01T13:07:21.321Z,71.63
2019-05-01T13:12:27.388Z,69.03
2019-05-01T13:17:33.362Z,64.93
2019-05-01T13:22:39.740Z,64.60
2019-05-01T13:28:05.020Z,68.47
2019-05-01T13:33:11.274Z,71.50
2019-05-01T13:38:17.321Z,69.43
2019-05-01T13:43:22.991Z,65.77
2019-05-01T13:48:29.017Z,67.55
2019-05-01T13:53:34.998Z,63.13
2019-05-01T13:58:40.964Z,59.33
2019-05-01T14:03:46.958Z,68.93
2019-05-01T14:08:53.012Z,66.73
2019-05-01T14:19:04.677Z,65.60
2019-05-01T14:24:27.989Z,63.30
2019-05-01T14:29:34.090Z,60.80
2019-05-01T14:34:41.268Z,63.00
2019-05-01T14:39:47.294Z,63.40
2019-05-01T14:44:53.271Z,64.03
2019-05-01T14:49:59.276Z,60.00
2019-05-01T15:00:11.268Z,61.80
2019-05-01T15:05:17.400Z,58.97
2019-05-01T15:10:23.546Z,59.13
2019-05-01T15:15:38.616Z,61.33
2019-05-01T15:20:46.532Z,60.07
2019-05-01T15:25:52.708Z,59.67
2019-05-01T15:30:58.678Z,61.67
2019-05-01T15:36:06.269Z,54.63
2019-05-01T15:41:18.303Z,55.25
2019-05-01T15:46:41.577Z,50.10
2019-05-01T15:56:55.679Z,49.23
2019-05-01T16:02:01.643Z,47.38
2019-05-01T16:07:07.512Z,45.67
2019-05-01T16:12:13.589Z,51.60
2019-05-01T16:17:21.096Z,49.33
2019-05-01T16:22:27.270Z,49.00
2019-05-01T16:27:33.280Z,52.30
2019-05-01T16:37:47.597Z,46.63
2019-05-01T16:42:53.539Z,42.88
2019-05-01T16:47:59.963Z,41.13
2019-05-01T16:53:06.632Z,41.03
2019-05-01T16:58:14.029Z,39.50
2019-05-01T17:08:36.377Z,41.70
2019-05-01T17:13:42.271Z,43.80
2019-05-01T17:23:54.388Z,37.83
2019-05-01T17:29:00.466Z,36.70
2019-05-01T17:34:09.498Z,38.58
2019-05-01T17:39:15.681Z,39.27
2019-05-01T17:54:38.334Z,37.47
2019-05-01T17:59:46.255Z,33.85
2019-05-01T18:05:10.497Z,34.17
2019-05-01T18:10:16.721Z,35.23
2019-05-01T18:15:22.683Z,36.00
2019-05-01T18:20:28.664Z,37.20
2019-05-01T18:25:42.040Z,38.37
2019-05-01T18:35:55.386Z,33.53
2019-05-01T18:41:19.829Z,34.92
2019-05-01T18:46:26.035Z,34.60
2019-05-01T18:51:36.196Z,37.07
2019-05-01T18:56:39.665Z,36.80
2019-05-01T19:01:48.540Z,34.58
2019-05-01T19:06:54.452Z,34.33
2019-05-01T19:12:01.009Z,34.30
2019-05-01T19:17:07.568Z,30.93
2019-05-01T19:22:13.509Z,33.60
2019-05-01T19:27:21.235Z,32.85
2019-05-01T19:32:28.040Z,32.37
2019-05-01T19:37:34.777Z,33.87
2019-05-01T19:42:41.645Z,31.37
2019-05-01T19:47:47.876Z,33.93
2019-05-01T19:52:55.557Z,31.33
2019-05-01T19:58:01.527Z,33.33
2019-05-01T20:03:07.808Z,32.20
2019-05-01T20:08:13.675Z,32.20
2019-05-01T20:13:21.491Z,32.60
2019-05-01T20:23:34.566Z,35.97
2019-05-01T20:28:40.754Z,35.63
2019-05-01T20:33:46.702Z,33.13
2019-05-01T20:38:52.674Z,32.87
2019-05-01T20:43:58.801Z,36.13
2019-05-01T20:49:06.657Z,33.83
2019-05-01T20:54:12.635Z,31.30
2019-05-01T21:04:41.289Z,34.38
2019-05-01T21:09:57.301Z,32.43
2019-05-01T21:14:56.384Z,30.97
2019-05-01T21:20:03.797Z,30.40
2019-05-01T21:25:09.768Z,30.83
2019-05-01T21:30:15.631Z,32.13
2019-05-01T21:40:38.754Z,30.90
2019-05-01T21:45:37.004Z,31.68
2019-05-01T21:51:03.379Z,33.03
2019-05-01T21:56:09.867Z,34.87
2019-05-01T22:01:21.366Z,35.80
2019-05-01T22:06:32.425Z,32.55
2019-05-01T22:11:42.725Z,34.97
2019-05-01T22:16:48.692Z,32.23
2019-05-01T22:22:08.604Z,33.90
2019-05-01T22:27:16.096Z,34.43
2019-05-01T22:37:34.011Z,33.67
2019-05-01T22:42:39.877Z,33.88
2019-05-01T22:47:50.751Z,33.33
2019-05-01T22:52:54.016Z,33.73
2019-05-01T22:58:00.036Z,33.53
2019-05-01T23:03:07.623Z,32.17
2019-05-01T23:13:23.281Z,32.33
2019-05-01T23:23:34.909Z,35.33
2019-05-01T23:28:41.021Z,34.23
2019-05-01T23:33:50.555Z,34.20
2019-05-01T23:44:03.618Z,33.07
2019-05-01T23:49:10.039Z,33.93
2019-05-01T23:54:16.011Z,37.50
2019-05-01T23:59:21.994Z,36.50
